createdAt,value
2023-01-11T00:00:08.025Z,7.10
2023-01-11T00:00:17.457Z,7.10
2023-01-11T00:00:36.231Z,7.10
2023-01-11T00:00:45.635Z,7.10
2023-01-11T00:00:55.034Z,7.10
2023-01-11T00:01:04.422Z,7.10
2023-01-11T00:01:13.839Z,7.10
2023-01-11T00:01:23.250Z,7.10
2023-01-11T00:01:32.659Z,7.10
2023-01-11T00:01:42.088Z,7.10
2023-01-11T00:01:51.737Z,7.10
2023-01-11T00:02:01.069Z,7.00
2023-01-11T00:02:10.568Z,7.10
2023-01-11T00:02:20.031Z,7.10
2023-01-11T00:02:29.367Z,7.10
2023-01-11T00:02:38.822Z,7.10
2023-01-11T00:02:48.128Z,7.10
2023-01-11T00:02:57.579Z,7.00
2023-01-11T00:03:16.455Z,7.00
2023-01-11T00:03:25.860Z,7.00
2023-01-11T00:03:35.332Z,7.00
2023-01-11T00:03:44.759Z,7.00
2023-01-11T00:03:54.181Z,7.00
2023-01-11T00:04:03.614Z,7.00
2023-01-11T00:04:13.079Z,7.00
2023-01-11T00:04:22.496Z,7.00
2023-01-11T00:04:31.934Z,7.00
2023-01-11T00:04:41.337Z,7.00
2023-01-11T00:04:50.892Z,7.00
2023-01-11T00:05:00.255Z,7.00
2023-01-11T00:05:09.615Z,7.00
2023-01-11T00:05:18.916Z,7.00
2023-01-11T00:05:28.519Z,6.90
2023-01-11T00:05:37.744Z,6.90
2023-01-11T00:05:56.541Z,6.90
2023-01-11T00:06:05.919Z,6.90
2023-01-11T00:06:15.341Z,6.90
2023-01-11T00:06:24.775Z,6.90
2023-01-11T00:06:34.192Z,6.90
2023-01-11T00:06:43.589Z,6.90
2023-01-11T00:06:53.016Z,6.90
2023-01-11T00:07:02.339Z,7.00
2023-01-11T00:07:11.797Z,7.00
2023-01-11T00:07:21.264Z,6.80
2023-01-11T00:07:30.617Z,7.00
2023-01-11T00:07:40.018Z,7.00
2023-01-11T00:07:49.434Z,7.00
2023-01-11T00:07:58.884Z,7.00
2023-01-11T00:08:08.336Z,7.00
2023-01-11T00:08:17.761Z,7.00
2023-01-11T00:08:36.582Z,7.00
2023-01-11T00:08:45.971Z,7.00
2023-01-11T00:08:55.401Z,7.00
2023-01-11T00:09:04.866Z,7.00
2023-01-11T00:09:14.357Z,7.00
2023-01-11T00:09:23.753Z,7.00
2023-01-11T00:09:33.156Z,7.00
2023-01-11T00:09:42.576Z,7.00
2023-01-11T00:09:51.969Z,7.00
2023-01-11T00:10:01.413Z,7.00
2023-01-11T00:10:10.859Z,7.00
2023-01-11T00:10:20.408Z,7.00
2023-01-11T00:10:29.815Z,7.00
2023-01-11T00:10:39.232Z,7.00
2023-01-11T00:10:48.637Z,7.00
2023-01-11T00:10:58.470Z,7.00
2023-01-11T00:11:07.881Z,7.00
2023-01-11T00:11:26.674Z,7.00
2023-01-11T00:11:36.091Z,7.00
2023-01-11T00:11:45.479Z,7.00
2023-01-11T00:11:54.888Z,7.00
2023-01-11T00:12:04.389Z,7.00
2023-01-11T00:12:13.846Z,7.00
2023-01-11T00:12:23.239Z,7.00
2023-01-11T00:12:32.799Z,7.00
2023-01-11T00:12:42.191Z,7.00
2023-01-11T00:12:51.647Z,7.00
2023-01-11T00:13:01.074Z,7.00
2023-01-11T00:13:10.463Z,7.00
2023-01-11T00:13:19.859Z,7.00
2023-01-11T00:13:29.256Z,7.00
2023-01-11T00:13:38.667Z,7.00
2023-01-11T00:13:48.139Z,7.00
2023-01-11T00:13:57.542Z,7.00
2023-01-11T00:14:16.337Z,7.00
2023-01-11T00:14:25.749Z,7.00
2023-01-11T00:14:35.157Z,7.00
2023-01-11T00:14:44.560Z,7.00
2023-01-11T00:14:53.964Z,7.00
2023-01-11T00:15:03.484Z,6.90
2023-01-11T00:15:12.892Z,6.90
2023-01-11T00:15:22.279Z,6.90
2023-01-11T00:15:31.680Z,7.00
2023-01-11T00:15:41.139Z,6.90
2023-01-11T00:15:50.564Z,6.90
2023-01-11T00:15:59.907Z,7.00
2023-01-11T00:16:09.357Z,6.90
2023-01-11T00:16:18.747Z,7.00
2023-01-11T00:16:28.184Z,6.90
2023-01-11T00:16:37.526Z,7.00
2023-01-11T00:16:56.326Z,7.00
2023-01-11T00:17:05.713Z,6.90
2023-01-11T00:17:15.154Z,6.90
2023-01-11T00:17:24.571Z,6.90
2023-01-11T00:17:33.965Z,6.90
2023-01-11T00:17:43.373Z,6.90
2023-01-11T00:17:52.780Z,6.90
2023-01-11T00:18:02.176Z,6.90
2023-01-11T00:18:11.581Z,6.90
2023-01-11T00:18:20.968Z,6.90
2023-01-11T00:18:30.364Z,6.90
2023-01-11T00:18:39.793Z,6.90
2023-01-11T00:18:49.219Z,6.90
2023-01-11T00:18:58.624Z,6.90
2023-01-11T00:19:08.041Z,6.90
2023-01-11T00:19:17.499Z,6.90
2023-01-11T00:19:36.332Z,6.90
2023-01-11T00:19:45.752Z,6.90
2023-01-11T00:19:55.172Z,6.90
2023-01-11T00:20:04.614Z,6.90
2023-01-11T00:20:14.055Z,7.00
2023-01-11T00:20:23.452Z,6.90
2023-01-11T00:20:32.862Z,7.00
2023-01-11T00:20:42.279Z,7.00
2023-01-11T00:20:51.696Z,7.00
2023-01-11T00:21:01.109Z,7.00
2023-01-11T00:21:10.505Z,7.00
2023-01-11T00:21:19.944Z,7.00
2023-01-11T00:21:29.354Z,7.00
2023-01-11T00:21:38.796Z,7.00
2023-01-11T00:21:48.207Z,7.00
2023-01-11T00:21:57.624Z,7.00
2023-01-11T00:22:16.592Z,7.00
2023-01-11T00:22:26.002Z,7.20
2023-01-11T00:22:35.413Z,7.10
2023-01-11T00:22:44.832Z,7.10
2023-01-11T00:22:54.238Z,7.00
2023-01-11T00:23:03.642Z,7.10
2023-01-11T00:23:13.064Z,7.10
2023-01-11T00:23:22.472Z,7.10
2023-01-11T00:23:31.868Z,7.00
2023-01-11T00:23:41.442Z,7.00
2023-01-11T00:23:50.832Z,7.00
2023-01-11T00:24:00.251Z,7.00
2023-01-11T00:24:09.640Z,7.00
2023-01-11T00:24:19.071Z,7.00
2023-01-11T00:24:28.523Z,6.90
2023-01-11T00:24:37.914Z,6.90
2023-01-11T00:24:56.725Z,6.80
2023-01-11T00:25:06.138Z,6.80
2023-01-11T00:25:15.687Z,6.80
2023-01-11T00:25:25.326Z,6.80
2023-01-11T00:25:34.735Z,6.70
2023-01-11T00:25:44.120Z,6.70
2023-01-11T00:25:53.522Z,6.70
2023-01-11T00:26:02.909Z,6.70
2023-01-11T00:26:12.308Z,6.60
2023-01-11T00:26:21.710Z,6.60
2023-01-11T00:26:31.135Z,6.60
2023-01-11T00:26:40.509Z,6.60
2023-01-11T00:26:49.924Z,6.50
2023-01-11T00:26:59.327Z,6.50
2023-01-11T00:27:08.795Z,6.50
2023-01-11T00:27:18.449Z,6.50
2023-01-11T00:27:27.857Z,6.50
2023-01-11T00:27:46.672Z,6.50
2023-01-11T00:27:56.089Z,6.50
2023-01-11T00:28:05.543Z,6.50
2023-01-11T00:28:14.937Z,6.50
2023-01-11T00:28:24.340Z,6.50
2023-01-11T00:28:33.787Z,6.50
2023-01-11T00:28:43.188Z,6.50
2023-01-11T00:28:52.579Z,6.50
2023-01-11T00:29:01.998Z,6.50
2023-01-11T00:29:11.432Z,6.50
2023-01-11T00:29:20.857Z,6.40
2023-01-11T00:29:30.253Z,6.40
2023-01-11T00:29:39.667Z,6.40
2023-01-11T00:29:49.065Z,6.40
2023-01-11T00:29:58.502Z,6.40
2023-01-11T00:30:07.906Z,6.40
2023-01-11T00:30:17.326Z,6.40
2023-01-11T00:30:36.166Z,6.40
2023-01-11T00:30:45.563Z,6.40
2023-01-11T00:30:55.000Z,6.40
2023-01-11T00:31:04.461Z,6.40
2023-01-11T00:31:13.834Z,6.40
2023-01-11T00:31:23.276Z,6.40
2023-01-11T00:31:32.664Z,6.50
2023-01-11T00:31:42.178Z,6.40
2023-01-11T00:31:51.511Z,6.50
2023-01-11T00:32:00.928Z,6.50
2023-01-11T00:32:10.339Z,6.50
2023-01-11T00:32:19.745Z,6.50
2023-01-11T00:32:29.158Z,6.50
2023-01-11T00:32:38.586Z,6.60
2023-01-11T00:32:48.001Z,6.60
2023-01-11T00:32:57.418Z,6.60
2023-01-11T00:33:16.231Z,6.60
2023-01-11T00:33:25.642Z,6.60
2023-01-11T00:33:35.108Z,6.60
2023-01-11T00:33:44.728Z,6.60
2023-01-11T00:33:54.154Z,6.60
2023-01-11T00:34:03.581Z,6.60
2023-01-11T00:34:13.001Z,6.60
2023-01-11T00:34:22.424Z,6.60
2023-01-11T00:34:31.818Z,6.60
2023-01-11T00:34:41.216Z,6.70
2023-01-11T00:34:50.628Z,6.70
2023-01-11T00:35:00.053Z,6.70
2023-01-11T00:35:09.495Z,6.70
2023-01-11T00:35:18.912Z,6.70
2023-01-11T00:35:28.338Z,6.70
2023-01-11T00:35:37.741Z,6.80
2023-01-11T00:35:56.583Z,6.60
2023-01-11T00:36:06.003Z,6.80
2023-01-11T00:36:15.397Z,6.80
2023-01-11T00:36:24.821Z,6.70
2023-01-11T00:36:34.251Z,6.80
2023-01-11T00:36:43.661Z,6.80
2023-01-11T00:36:53.080Z,6.80
2023-01-11T00:37:02.503Z,6.80
2023-01-11T00:37:11.931Z,6.80
2023-01-11T00:37:21.344Z,6.80
2023-01-11T00:37:30.761Z,6.80
2023-01-11T00:37:40.155Z,6.90
2023-01-11T00:37:49.585Z,6.90
2023-01-11T00:37:58.973Z,6.90
2023-01-11T00:38:08.399Z,6.80
2023-01-11T00:38:17.773Z,6.90
2023-01-11T00:38:36.579Z,6.90
2023-01-11T00:38:46.005Z,6.90
2023-01-11T00:38:55.513Z,6.90
2023-01-11T00:39:04.836Z,6.90
2023-01-11T00:39:14.207Z,6.90
2023-01-11T00:39:23.614Z,6.90
2023-01-11T00:39:33.048Z,6.90
2023-01-11T00:39:42.433Z,6.90
2023-01-11T00:39:51.851Z,6.90
2023-01-11T00:40:01.280Z,6.90
2023-01-11T00:40:10.685Z,6.90
2023-01-11T00:40:20.160Z,6.90
2023-01-11T00:40:29.569Z,6.90
2023-01-11T00:40:38.979Z,6.90
2023-01-11T00:40:48.426Z,6.90
2023-01-11T00:40:57.855Z,6.90
2023-01-11T00:41:16.666Z,6.90
2023-01-11T00:41:26.112Z,6.90
2023-01-11T00:41:35.520Z,6.90
2023-01-11T00:41:44.941Z,6.90
2023-01-11T00:41:54.334Z,6.90
2023-01-11T00:42:03.746Z,6.90
2023-01-11T00:42:17.219Z,6.90
2023-01-11T00:42:26.637Z,6.90
2023-01-11T00:42:36.045Z,7.00
2023-01-11T00:42:45.476Z,7.00
2023-01-11T00:42:54.883Z,7.00
2023-01-11T00:43:04.288Z,6.90
2023-01-11T00:43:13.696Z,6.90
2023-01-11T00:43:23.095Z,7.00
2023-01-11T00:43:32.509Z,7.00
2023-01-11T00:43:41.935Z,7.00
2023-01-11T00:43:51.374Z,7.00
2023-01-11T00:44:00.802Z,7.00
2023-01-11T00:44:10.195Z,7.00
2023-01-11T00:44:19.609Z,7.00
2023-01-11T00:44:29.039Z,7.00
2023-01-11T00:44:38.438Z,6.90
2023-01-11T00:44:47.854Z,7.00
2023-01-11T00:45:06.668Z,6.90
2023-01-11T00:45:16.089Z,7.00
2023-01-11T00:45:25.461Z,7.00
2023-01-11T00:45:34.874Z,7.00
2023-01-11T00:45:44.302Z,7.00
2023-01-11T00:45:53.784Z,6.90
2023-01-11T00:46:03.236Z,7.00
2023-01-11T00:46:12.575Z,7.00
2023-01-11T00:46:21.971Z,7.00
2023-01-11T00:46:31.433Z,7.00
2023-01-11T00:46:40.796Z,7.00
2023-01-11T00:46:50.248Z,7.00
2023-01-11T00:46:59.689Z,7.10
2023-01-11T00:47:09.116Z,7.10
2023-01-11T00:47:18.520Z,7.10
2023-01-11T00:47:27.927Z,7.10
2023-01-11T00:47:37.352Z,7.10
2023-01-11T00:47:56.179Z,7.10
2023-01-11T00:48:05.566Z,7.10
2023-01-11T00:48:15.040Z,7.10
2023-01-11T00:48:24.449Z,7.10
2023-01-11T00:48:33.878Z,7.10
2023-01-11T00:48:43.290Z,7.10
2023-01-11T00:48:52.717Z,7.10
2023-01-11T00:49:02.137Z,7.00
2023-01-11T00:49:11.579Z,7.00
2023-01-11T00:49:20.977Z,7.00
2023-01-11T00:49:30.395Z,7.00
2023-01-11T00:49:39.788Z,7.00
2023-01-11T00:49:49.181Z,7.00
2023-01-11T00:49:58.581Z,7.00
2023-01-11T00:50:07.978Z,7.00
2023-01-11T00:50:17.368Z,7.00
2023-01-11T00:50:36.201Z,7.00
2023-01-11T00:50:45.575Z,7.00
2023-01-11T00:50:54.986Z,7.00
2023-01-11T00:51:04.378Z,7.00
2023-01-11T00:51:13.769Z,7.00
2023-01-11T00:51:23.156Z,7.00
2023-01-11T00:51:32.557Z,7.00
2023-01-11T00:51:41.936Z,7.00
2023-01-11T00:51:51.362Z,7.00
2023-01-11T00:52:00.821Z,7.00
2023-01-11T00:52:10.281Z,7.00
2023-01-11T00:52:19.728Z,7.10
2023-01-11T00:52:29.133Z,7.00
2023-01-11T00:52:38.565Z,7.00
2023-01-11T00:52:47.993Z,7.00
2023-01-11T00:52:57.423Z,7.10
2023-01-11T00:53:16.259Z,7.10
2023-01-11T00:53:25.669Z,7.10
2023-01-11T00:53:35.084Z,7.00
2023-01-11T00:53:44.570Z,7.00
2023-01-11T00:53:53.970Z,7.00
2023-01-11T00:54:03.386Z,7.00
2023-01-11T00:54:12.789Z,7.00
2023-01-11T00:54:22.217Z,7.00
2023-01-11T00:54:31.629Z,7.00
2023-01-11T00:54:41.041Z,7.00
2023-01-11T00:54:50.438Z,7.00
2023-01-11T00:54:59.831Z,7.00
2023-01-11T00:55:09.243Z,7.00
2023-01-11T00:55:18.655Z,7.00
2023-01-11T00:55:28.070Z,7.00
2023-01-11T00:55:37.441Z,7.00
2023-01-11T00:55:56.284Z,7.00
2023-01-11T00:56:05.694Z,7.00
2023-01-11T00:56:15.092Z,6.90
2023-01-11T00:56:24.506Z,7.00
2023-01-11T00:56:33.904Z,7.00
2023-01-11T00:56:43.284Z,6.90
2023-01-11T00:56:52.739Z,6.90
2023-01-11T00:57:02.121Z,6.90
2023-01-11T00:57:11.546Z,6.90
2023-01-11T00:57:20.941Z,6.90
2023-01-11T00:57:30.353Z,6.90
2023-01-11T00:57:39.772Z,6.90
2023-01-11T00:57:49.179Z,6.90
2023-01-11T00:57:58.612Z,6.90
2023-01-11T00:58:08.012Z,6.90
2023-01-11T00:58:17.428Z,6.90
2023-01-11T00:58:36.262Z,6.90
2023-01-11T00:58:45.655Z,6.90
2023-01-11T00:58:55.078Z,6.90
2023-01-11T00:59:04.500Z,6.90
2023-01-11T00:59:13.941Z,6.90
2023-01-11T00:59:23.351Z,6.90
2023-01-11T00:59:32.743Z,6.90
2023-01-11T00:59:42.135Z,6.90
2023-01-11T00:59:51.555Z,6.90
2023-01-11T01:00:00.960Z,6.90
2023-01-11T01:00:10.338Z,6.90
2023-01-11T01:00:19.733Z,6.90
2023-01-11T01:00:29.211Z,6.90
2023-01-11T01:00:38.563Z,6.90
2023-01-11T01:00:47.979Z,6.90
2023-01-11T01:00:57.387Z,6.90
2023-01-11T01:01:16.201Z,6.90
2023-01-11T01:01:25.687Z,6.90
2023-01-11T01:01:35.186Z,6.90
2023-01-11T01:01:44.618Z,6.90
2023-01-11T01:01:53.864Z,6.90
2023-01-11T01:02:03.260Z,6.90
2023-01-11T01:02:12.695Z,6.90
2023-01-11T01:02:22.118Z,6.80
2023-01-11T01:02:31.568Z,6.90
2023-01-11T01:02:40.925Z,6.80
2023-01-11T01:02:50.400Z,6.80
2023-01-11T01:02:59.724Z,6.80
2023-01-11T01:03:09.095Z,6.80
2023-01-11T01:03:18.513Z,6.80
2023-01-11T01:03:27.938Z,6.80
2023-01-11T01:03:37.331Z,6.80
2023-01-11T01:03:56.156Z,6.80
2023-01-11T01:04:05.542Z,6.80
2023-01-11T01:04:14.968Z,6.80
2023-01-11T01:04:24.403Z,6.80
2023-01-11T01:04:33.829Z,6.80
2023-01-11T01:04:43.216Z,6.70
2023-01-11T01:04:52.624Z,6.80
2023-01-11T01:05:02.037Z,6.80
2023-01-11T01:05:11.489Z,6.80
2023-01-11T01:05:20.919Z,6.80
2023-01-11T01:05:30.319Z,6.70
2023-01-11T01:05:39.708Z,6.70
2023-01-11T01:05:49.109Z,6.70
2023-01-11T01:05:58.512Z,6.70
2023-01-11T01:06:07.944Z,6.70
2023-01-11T01:06:17.343Z,6.60
2023-01-11T01:06:36.179Z,6.70
2023-01-11T01:06:45.666Z,6.70
2023-01-11T01:06:55.120Z,6.70
2023-01-11T01:07:04.382Z,6.70
2023-01-11T01:07:13.779Z,6.70
2023-01-11T01:07:23.206Z,6.70
2023-01-11T01:07:32.622Z,6.70
2023-01-11T01:07:42.036Z,6.70
2023-01-11T01:07:51.455Z,6.70
2023-01-11T01:08:00.832Z,6.70
2023-01-11T01:08:10.246Z,6.70
2023-01-11T01:08:19.610Z,6.70
2023-01-11T01:08:29.041Z,6.70
2023-01-11T01:08:38.465Z,6.70
2023-01-11T01:08:47.841Z,6.70
2023-01-11T01:09:06.672Z,6.70
2023-01-11T01:09:16.096Z,6.70
2023-01-11T01:09:25.488Z,6.70
2023-01-11T01:09:34.904Z,6.70
2023-01-11T01:09:44.295Z,6.70
2023-01-11T01:09:53.682Z,6.70
2023-01-11T01:10:03.085Z,6.70
2023-01-11T01:10:12.488Z,6.70
2023-01-11T01:10:21.897Z,6.70
2023-01-11T01:10:31.370Z,6.70
2023-01-11T01:10:40.755Z,6.70
2023-01-11T01:10:50.161Z,6.70
2023-01-11T01:10:59.569Z,6.70
2023-01-11T01:11:08.976Z,6.60
2023-01-11T01:11:18.375Z,6.70
2023-01-11T01:11:27.797Z,6.70
2023-01-11T01:11:46.601Z,6.60
2023-01-11T01:11:56.009Z,6.70
2023-01-11T01:12:05.422Z,6.70
2023-01-11T01:12:14.824Z,6.70
2023-01-11T01:12:24.282Z,6.70
2023-01-11T01:12:33.688Z,6.70
2023-01-11T01:12:43.091Z,6.70
2023-01-11T01:12:52.519Z,6.70
2023-01-11T01:13:01.907Z,6.70
2023-01-11T01:13:11.352Z,6.70
2023-01-11T01:13:20.753Z,6.70
2023-01-11T01:13:30.172Z,6.70
2023-01-11T01:13:39.580Z,6.70
2023-01-11T01:13:48.977Z,6.70
2023-01-11T01:13:58.378Z,6.70
2023-01-11T01:14:07.780Z,6.70
2023-01-11T01:14:26.686Z,6.70
2023-01-11T01:14:35.995Z,6.70
2023-01-11T01:14:45.419Z,6.70
2023-01-11T01:14:54.796Z,6.70
2023-01-11T01:15:04.186Z,6.70
2023-01-11T01:15:13.595Z,6.70
2023-01-11T01:15:22.987Z,6.70
2023-01-11T01:15:32.390Z,6.70
2023-01-11T01:15:41.829Z,6.80
2023-01-11T01:15:51.243Z,6.80
2023-01-11T01:16:00.658Z,6.70
2023-01-11T01:16:10.111Z,6.70
2023-01-11T01:16:19.483Z,6.70
2023-01-11T01:16:28.829Z,6.70
2023-01-11T01:16:38.250Z,6.70
2023-01-11T01:16:47.667Z,6.70
2023-01-11T01:17:06.440Z,6.80
2023-01-11T01:17:15.842Z,6.70
2023-01-11T01:17:25.309Z,6.70
2023-01-11T01:17:34.764Z,6.70
2023-01-11T01:17:44.160Z,6.80
2023-01-11T01:17:53.566Z,6.80
2023-01-11T01:18:02.988Z,6.80
2023-01-11T01:18:12.406Z,6.70
2023-01-11T01:18:21.840Z,6.70
2023-01-11T01:18:31.235Z,6.70
2023-01-11T01:18:40.650Z,6.80
2023-01-11T01:18:50.038Z,6.80
2023-01-11T01:18:59.490Z,6.70
2023-01-11T01:19:08.897Z,6.70
2023-01-11T01:19:18.441Z,6.80
2023-01-11T01:19:27.933Z,6.80
2023-01-11T01:19:46.670Z,6.80
2023-01-11T01:19:56.079Z,6.80
2023-01-11T01:20:05.510Z,6.80
2023-01-11T01:20:14.902Z,6.80
2023-01-11T01:20:24.297Z,6.80
2023-01-11T01:20:33.718Z,6.70
2023-01-11T01:20:43.153Z,6.80
2023-01-11T01:20:52.531Z,6.80
2023-01-11T01:21:01.964Z,6.80
2023-01-11T01:21:11.404Z,6.80
2023-01-11T01:21:20.824Z,6.80
2023-01-11T01:21:30.279Z,6.80
2023-01-11T01:21:39.745Z,6.80
2023-01-11T01:21:49.164Z,6.80
2023-01-11T01:21:58.568Z,6.80
2023-01-11T01:22:07.960Z,6.90
2023-01-11T01:22:17.367Z,6.80
2023-01-11T01:22:36.210Z,6.80
2023-01-11T01:22:45.631Z,6.80
2023-01-11T01:22:55.042Z,6.80
2023-01-11T01:23:04.447Z,6.80
2023-01-11T01:23:13.874Z,6.80
2023-01-11T01:23:23.275Z,6.80
2023-01-11T01:23:32.665Z,6.80
2023-01-11T01:23:42.070Z,6.70
2023-01-11T01:23:51.460Z,6.70
2023-01-11T01:24:00.907Z,6.70
2023-01-11T01:24:10.263Z,6.70
2023-01-11T01:24:19.662Z,6.70
2023-01-11T01:24:29.087Z,6.70
2023-01-11T01:24:38.508Z,6.70
2023-01-11T01:24:47.985Z,6.70
2023-01-11T01:25:06.712Z,6.70
2023-01-11T01:25:16.134Z,6.70
2023-01-11T01:25:25.551Z,6.70
2023-01-11T01:25:34.984Z,6.70
2023-01-11T01:25:44.394Z,6.70
2023-01-11T01:25:53.794Z,6.70
2023-01-11T01:26:03.189Z,6.70
2023-01-11T01:26:12.568Z,6.70
2023-01-11T01:26:21.988Z,6.60
2023-01-11T01:26:31.431Z,6.60
2023-01-11T01:26:40.825Z,6.60
2023-01-11T01:26:50.247Z,6.60
2023-01-11T01:26:59.685Z,6.50
2023-01-11T01:27:09.078Z,6.60
2023-01-11T01:27:18.474Z,6.60
2023-01-11T01:27:27.890Z,6.60
2023-01-11T01:27:46.675Z,6.60
2023-01-11T01:27:56.101Z,6.60
2023-01-11T01:28:05.513Z,6.60
2023-01-11T01:28:14.927Z,6.60
2023-01-11T01:28:24.357Z,6.60
2023-01-11T01:28:33.764Z,6.60
2023-01-11T01:28:43.198Z,6.60
2023-01-11T01:28:52.623Z,6.60
2023-01-11T01:29:02.010Z,6.60
2023-01-11T01:29:11.533Z,6.60
2023-01-11T01:29:20.951Z,6.60
2023-01-11T01:29:30.343Z,6.60
2023-01-11T01:29:39.737Z,6.60
2023-01-11T01:29:49.209Z,6.60
2023-01-11T01:29:58.619Z,6.60
2023-01-11T01:30:08.060Z,6.60
2023-01-11T01:30:17.426Z,6.60
2023-01-11T01:30:36.210Z,6.60
2023-01-11T01:30:45.603Z,6.60
2023-01-11T01:30:55.021Z,6.60
2023-01-11T01:31:04.466Z,6.60
2023-01-11T01:31:13.841Z,6.60
2023-01-11T01:31:23.325Z,6.60
2023-01-11T01:31:32.773Z,6.60
2023-01-11T01:31:42.070Z,6.60
2023-01-11T01:31:51.473Z,6.60
2023-01-11T01:32:00.849Z,6.60
2023-01-11T01:32:10.268Z,6.60
2023-01-11T01:32:19.663Z,6.60
2023-01-11T01:32:29.097Z,6.60
2023-01-11T01:32:38.548Z,6.60
2023-01-11T01:32:47.934Z,6.70
2023-01-11T01:32:57.331Z,6.70
2023-01-11T01:33:16.140Z,6.70
2023-01-11T01:33:25.535Z,6.70
2023-01-11T01:33:34.955Z,6.70
2023-01-11T01:33:44.325Z,6.70
2023-01-11T01:33:53.754Z,6.70
2023-01-11T01:34:03.173Z,6.70
2023-01-11T01:34:12.585Z,6.70
2023-01-11T01:34:21.971Z,6.70
2023-01-11T01:34:31.431Z,6.70
2023-01-11T01:34:40.846Z,6.80
2023-01-11T01:34:50.261Z,6.80
2023-01-11T01:34:59.672Z,6.80
2023-01-11T01:35:09.083Z,6.80
2023-01-11T01:35:18.484Z,6.70
2023-01-11T01:35:27.891Z,6.70
2023-01-11T01:35:37.339Z,6.80
2023-01-11T01:35:56.163Z,6.80
2023-01-11T01:36:05.568Z,6.80
2023-01-11T01:36:14.957Z,6.80
2023-01-11T01:36:24.351Z,6.80
2023-01-11T01:36:33.767Z,6.80
2023-01-11T01:36:43.182Z,6.80
2023-01-11T01:36:52.624Z,6.80
2023-01-11T01:37:02.018Z,6.80
2023-01-11T01:37:11.411Z,6.80
2023-01-11T01:37:20.907Z,6.80
2023-01-11T01:37:34.195Z,6.80
2023-01-11T01:37:43.596Z,6.80
2023-01-11T01:37:53.010Z,6.80
2023-01-11T01:38:02.407Z,6.80
2023-01-11T01:38:11.797Z,6.80
2023-01-11T01:38:21.185Z,6.80
2023-01-11T01:38:30.590Z,6.80
2023-01-11T01:38:39.971Z,6.80
2023-01-11T01:38:49.367Z,6.80
2023-01-11T01:38:58.797Z,6.80
2023-01-11T01:39:08.193Z,6.80
2023-01-11T01:39:17.600Z,6.90
2023-01-11T01:39:36.406Z,6.90
2023-01-11T01:39:45.801Z,6.90
2023-01-11T01:39:55.225Z,6.90
2023-01-11T01:40:04.630Z,6.90
2023-01-11T01:40:14.030Z,6.90
2023-01-11T01:40:23.447Z,6.90
2023-01-11T01:40:32.857Z,6.90
2023-01-11T01:40:42.300Z,6.90
2023-01-11T01:40:51.674Z,6.90
2023-01-11T01:41:01.131Z,6.90
2023-01-11T01:41:10.547Z,6.90
2023-01-11T01:41:19.961Z,6.90
2023-01-11T01:41:29.399Z,6.90
2023-01-11T01:41:38.810Z,6.90
2023-01-11T01:41:48.223Z,6.90
2023-01-11T01:41:57.641Z,6.90
2023-01-11T01:42:16.404Z,6.90
2023-01-11T01:42:25.826Z,6.90
2023-01-11T01:42:35.235Z,6.90
2023-01-11T01:42:44.702Z,6.90
2023-01-11T01:42:54.105Z,6.90
2023-01-11T01:43:03.509Z,6.90
2023-01-11T01:43:12.912Z,6.90
2023-01-11T01:43:22.315Z,6.90
2023-01-11T01:43:31.719Z,6.90
2023-01-11T01:43:41.129Z,6.90
2023-01-11T01:43:50.621Z,6.90
2023-01-11T01:43:59.987Z,6.90
2023-01-11T01:44:09.376Z,6.90
2023-01-11T01:44:18.851Z,6.90
2023-01-11T01:44:28.261Z,6.90
2023-01-11T01:44:37.667Z,6.90
2023-01-11T01:44:56.527Z,6.90
2023-01-11T01:45:05.926Z,6.90
2023-01-11T01:45:15.357Z,6.90
2023-01-11T01:45:24.809Z,6.90
2023-01-11T01:45:34.165Z,6.90
2023-01-11T01:45:43.583Z,6.90
2023-01-11T01:45:52.977Z,6.90
2023-01-11T01:46:02.431Z,6.90
2023-01-11T01:46:11.832Z,6.90
2023-01-11T01:46:21.337Z,6.90
2023-01-11T01:46:30.712Z,6.90
2023-01-11T01:46:40.080Z,6.90
2023-01-11T01:46:49.462Z,6.90
2023-01-11T01:46:58.929Z,6.90
2023-01-11T01:47:08.309Z,6.90
2023-01-11T01:47:17.705Z,6.90
2023-01-11T01:47:36.524Z,6.90
2023-01-11T01:47:45.912Z,6.90
2023-01-11T01:47:55.304Z,6.90
2023-01-11T01:48:04.694Z,6.90
2023-01-11T01:48:14.095Z,6.90
2023-01-11T01:48:23.517Z,6.90
2023-01-11T01:48:32.930Z,6.90
2023-01-11T01:48:42.341Z,6.90
2023-01-11T01:48:51.768Z,6.90
2023-01-11T01:49:01.161Z,6.90
2023-01-11T01:49:10.538Z,6.90
2023-01-11T01:49:19.936Z,6.90
2023-01-11T01:49:29.346Z,6.90
2023-01-11T01:49:38.731Z,6.90
2023-01-11T01:49:48.159Z,6.90
2023-01-11T01:49:57.551Z,6.90
2023-01-11T01:50:16.400Z,6.90
2023-01-11T01:50:25.809Z,6.90
2023-01-11T01:50:35.229Z,6.90
2023-01-11T01:50:44.643Z,6.90
2023-01-11T01:50:54.046Z,6.90
2023-01-11T01:51:03.495Z,7.00
2023-01-11T01:51:12.873Z,6.90
2023-01-11T01:51:22.351Z,6.90
2023-01-11T01:51:31.750Z,6.90
2023-01-11T01:51:41.146Z,6.90
2023-01-11T01:51:50.575Z,6.90
2023-01-11T01:51:59.947Z,6.90
2023-01-11T01:52:09.352Z,6.90
2023-01-11T01:52:18.759Z,6.90
2023-01-11T01:52:28.177Z,6.90
2023-01-11T01:52:37.587Z,6.90
2023-01-11T01:52:56.368Z,6.90
2023-01-11T01:53:05.764Z,6.90
2023-01-11T01:53:15.189Z,6.90
2023-01-11T01:53:24.622Z,6.90
2023-01-11T01:53:34.050Z,6.80
2023-01-11T01:53:43.577Z,6.90
2023-01-11T01:53:52.968Z,6.90
2023-01-11T01:54:02.380Z,6.90
2023-01-11T01:54:11.791Z,6.90
2023-01-11T01:54:21.178Z,6.90
2023-01-11T01:54:30.582Z,6.90
2023-01-11T01:54:40.071Z,6.80
2023-01-11T01:54:49.505Z,6.80
2023-01-11T01:54:58.945Z,6.80
2023-01-11T01:55:08.353Z,6.80
2023-01-11T01:55:17.756Z,6.80
2023-01-11T01:55:36.552Z,6.80
2023-01-11T01:55:45.983Z,6.80
2023-01-11T01:55:55.352Z,6.80
2023-01-11T01:56:04.752Z,6.70
2023-01-11T01:56:14.191Z,6.70
2023-01-11T01:56:23.603Z,6.70
2023-01-11T01:56:33.020Z,6.70
2023-01-11T01:56:42.423Z,6.70
2023-01-11T01:56:51.808Z,6.60
2023-01-11T01:57:01.229Z,6.70
2023-01-11T01:57:10.632Z,6.70
2023-01-11T01:57:20.025Z,6.70
2023-01-11T01:57:29.471Z,6.70
2023-01-11T01:57:38.876Z,6.70
2023-01-11T01:57:48.296Z,6.70
2023-01-11T01:57:57.702Z,6.70
2023-01-11T01:58:16.519Z,6.70
2023-01-11T01:58:25.918Z,6.70
2023-01-11T01:58:35.367Z,6.70
2023-01-11T01:58:44.801Z,6.70
2023-01-11T01:58:54.209Z,6.70
2023-01-11T01:59:03.605Z,6.70
2023-01-11T01:59:13.024Z,6.70
2023-01-11T01:59:22.462Z,6.70
2023-01-11T01:59:31.866Z,6.70
2023-01-11T01:59:41.296Z,6.70
2023-01-11T01:59:50.716Z,6.70
2023-01-11T02:00:00.124Z,6.70
2023-01-11T02:00:09.550Z,6.70
2023-01-11T02:00:18.970Z,6.70
2023-01-11T02:00:28.416Z,6.70
2023-01-11T02:00:37.803Z,6.70
2023-01-11T02:00:56.623Z,6.70
2023-01-11T02:01:06.065Z,6.70
2023-01-11T02:01:15.563Z,6.70
2023-01-11T02:01:24.914Z,6.70
2023-01-11T02:01:34.341Z,6.70
2023-01-11T02:01:43.792Z,6.70
2023-01-11T02:01:53.160Z,6.70
2023-01-11T02:02:02.642Z,6.70
2023-01-11T02:02:11.948Z,6.70
2023-01-11T02:02:21.447Z,6.70
2023-01-11T02:02:30.883Z,6.70
2023-01-11T02:02:40.212Z,6.70
2023-01-11T02:02:49.707Z,6.70
2023-01-11T02:02:59.175Z,6.70
2023-01-11T02:03:08.531Z,6.70
2023-01-11T02:03:17.932Z,6.60
2023-01-11T02:03:36.702Z,6.70
2023-01-11T02:03:46.112Z,6.70
2023-01-11T02:03:55.569Z,6.60
2023-01-11T02:04:04.968Z,6.70
2023-01-11T02:04:14.374Z,6.70
2023-01-11T02:04:23.791Z,6.60
2023-01-11T02:04:33.206Z,6.70
2023-01-11T02:04:42.646Z,6.70
2023-01-11T02:04:52.057Z,6.70
2023-01-11T02:05:01.473Z,6.70
2023-01-11T02:05:10.889Z,6.60
2023-01-11T02:05:20.276Z,6.70
2023-01-11T02:05:29.654Z,6.60
2023-01-11T02:05:39.078Z,6.70
2023-01-11T02:05:48.473Z,6.70
2023-01-11T02:05:57.870Z,6.70
2023-01-11T02:06:16.727Z,6.70
2023-01-11T02:06:26.188Z,6.70
2023-01-11T02:06:35.581Z,6.70
2023-01-11T02:06:45.001Z,6.70
2023-01-11T02:06:54.399Z,6.70
2023-01-11T02:07:03.736Z,6.70
2023-01-11T02:07:13.132Z,6.70
2023-01-11T02:07:22.604Z,6.70
2023-01-11T02:07:31.961Z,6.70
2023-01-11T02:07:41.400Z,6.70
2023-01-11T02:07:50.809Z,6.70
2023-01-11T02:08:00.214Z,6.60
2023-01-11T02:08:09.606Z,6.70
2023-01-11T02:08:19.008Z,6.60
2023-01-11T02:08:28.419Z,6.60
2023-01-11T02:08:37.911Z,6.70
2023-01-11T02:08:47.329Z,6.70
2023-01-11T02:09:06.292Z,6.70
2023-01-11T02:09:15.695Z,6.70
2023-01-11T02:09:25.159Z,6.60
2023-01-11T02:09:34.527Z,6.70
2023-01-11T02:09:43.965Z,6.70
2023-01-11T02:09:53.379Z,6.70
2023-01-11T02:10:02.832Z,6.70
2023-01-11T02:10:12.271Z,6.70
2023-01-11T02:10:21.701Z,6.70
2023-01-11T02:10:31.070Z,6.70
2023-01-11T02:10:40.487Z,6.70
2023-01-11T02:10:49.999Z,6.70
2023-01-11T02:10:59.321Z,6.70
2023-01-11T02:11:08.744Z,6.70
2023-01-11T02:11:18.128Z,6.70
2023-01-11T02:11:27.528Z,6.70
2023-01-11T02:11:46.362Z,6.70
2023-01-11T02:11:55.757Z,6.70
2023-01-11T02:12:05.151Z,6.70
2023-01-11T02:12:14.564Z,6.70
2023-01-11T02:12:23.959Z,6.70
2023-01-11T02:12:33.375Z,6.70
2023-01-11T02:12:42.789Z,6.70
2023-01-11T02:12:52.199Z,6.70
2023-01-11T02:13:01.617Z,6.70
2023-01-11T02:13:10.981Z,6.70